Time;durP1;ratioP1;P1;durP2;ratioP2;P2;SDS_P1;SDS_P2;PMS_P1;PMS_P2;Temp;Humidity;BMP_temperature;BMP_pressure;BME280_temperature;BME280_humidity;BME280_pressure;Samples;Min_cycle;Max_cycle;Signal;HPM_P1;HPM_P2
2023/07/04 00:00:25;;;;;;;8.20;2.17;;;;;;;16.52;65.84;100881.63;5003707;28;20058;-77
2023/07/04 00:02:50;;;;;;;9.15;2.30;;;;;;;16.45;66.61;100880.78;5006403;28;20091;-77
2023/07/04 00:05:16;;;;;;;13.63;2.85;;;;;;;16.50;66.45;100880.19;5006578;28;20041;-78
2023/07/04 00:07:42;;;;;;;12.50;2.58;;;;;;;16.54;66.46;100879.63;5004505;28;20044;-76
2023/07/04 00:10:08;;;;;;;15.82;3.63;;;;;;;16.50;66.92;100875.78;5004016;28;20029;-77
2023/07/04 00:12:34;;;;;;;10.45;2.20;;;;;;;16.42;67.31;100878.53;4990198;28;20062;-78
2023/07/04 00:14:59;;;;;;;12.80;2.58;;;;;;;16.49;67.31;100886.44;5007099;28;20480;-77
2023/07/04 00:17:26;;;;;;;8.27;2.50;;;;;;;16.53;67.05;100880.59;5003812;28;20061;-76
2023/07/04 00:19:51;;;;;;;11.57;2.47;;;;;;;16.44;67.77;100883.56;5003352;28;20042;-76
2023/07/04 00:22:17;;;;;;;11.15;2.38;;;;;;;16.34;67.99;100882.13;4985871;28;20041;-75
2023/07/04 00:24:43;;;;;;;9.52;2.85;;;;;;;16.36;68.18;100879.31;5003646;28;20034;-77
2023/07/04 00:27:11;;;;;;;9.32;2.22;;;;;;;16.22;68.73;100886.28;5009747;28;20040;-78
2023/07/04 00:29:38;;;;;;;8.77;2.15;;;;;;;16.29;68.85;100886.31;5005939;28;20381;-77
2023/07/04 00:32:06;;;;;;;7.85;2.30;;;;;;;16.23;69.01;100887.88;4988139;28;20478;-75
2023/07/04 00:34:31;;;;;;;10.73;2.65;;;;;;;16.22;69.44;100895.91;5002242;28;20129;-76
2023/07/04 00:37:00;;;;;;;13.77;2.15;;;;;;;16.15;69.75;100894.06;4992277;28;20120;-78
2023/07/04 00:39:26;;;;;;;10.35;2.60;;;;;;;16.11;69.69;100887.59;5008205;28;20038;-77
2023/07/04 00:41:52;;;;;;;13.75;2.92;;;;;;;16.12;69.88;100886.63;5009987;28;20113;-77
2023/07/04 00:44:30;;;;;;;12.68;2.60;;;;;;;16.14;70.16;100889.84;5013893;28;20088;-76
2023/07/04 00:47:12;;;;;;;11.88;2.60;;;;;;;16.07;70.57;100883.75;5010392;28;20415;-75
2023/07/04 00:49:42;;;;;;;11.55;2.58;;;;;;;16.03;70.62;100886.91;4997436;28;20092;-76
2023/07/04 00:52:24;;;;;;;9.95;2.28;;;;;;;16.00;71.02;100890.72;4990969;28;20052;-77
2023/07/04 00:55:02;;;;;;;14.87;3.03;;;;;;;15.98;71.46;100892.72;5007079;28;20115;-77
2023/07/04 00:57:31;;;;;;;6.93;2.08;;;;;;;15.95;71.71;100893.09;5007653;28;20045;-76
2023/07/04 01:00:00;;;;;;;12.57;2.40;;;;;;;15.89;72.10;100880.78;5010862;28;20140;-75
2023/07/04 01:02:31;;;;;;;15.57;2.95;;;;;;;15.91;72.16;100889.25;5015091;28;20037;-79
2023/07/04 01:04:58;;;;;;;13.70;2.50;;;;;;;15.92;72.17;100886.44;5029354;28;20041;-75
2023/07/04 01:07:30;;;;;;;14.25;2.65;;;;;;;15.95;72.18;100891.31;5005669;28;20030;-76
2023/07/04 01:10:03;;;;;;;15.68;2.28;;;;;;;15.81;72.72;100884.34;5009375;28;20097;-75
2023/07/04 01:12:30;;;;;;;11.98;3.22;;;;;;;15.73;73.15;100890.53;5007200;28;20038;-76
2023/07/04 01:15:01;;;;;;;17.65;2.88;;;;;;;15.67;73.65;100898.25;5012973;28;20068;-76
2023/07/04 01:17:28;;;;;;;10.02;2.53;;;;;;;15.71;73.80;100883.84;5006108;28;20030;-75
2023/07/04 01:19:54;;;;;;;11.95;3.15;;;;;;;15.64;74.06;100890.81;5009028;28;20057;-76
2023/07/04 01:22:33;;;;;;;11.43;2.33;;;;;;;15.62;74.40;100890.19;5011601;28;20119;-76
2023/07/04 01:25:05;;;;;;;10.38;2.58;;;;;;;15.62;74.72;100892.81;5004934;28;20056;-75
2023/07/04 01:27:31;;;;;;;14.20;3.20;;;;;;;15.62;74.98;100901.44;5011660;28;20026;-78
2023/07/04 01:30:04;;;;;;;16.10;3.58;;;;;;;15.62;74.93;100896.22;5009151;28;20049;-77
2023/07/04 01:32:31;;;;;;;11.95;2.65;;;;;;;15.56;75.27;100896.97;5009084;28;20046;-76
2023/07/04 01:34:58;;;;;;;12.48;3.10;;;;;;;15.54;75.21;100898.97;5007265;28;20037;-75
2023/07/04 01:37:25;;;;;;;13.23;2.30;;;;;;;15.54;75.29;100893.72;5008369;28;20044;-76
2023/07/04 01:39:51;;;;;;;12.18;2.35;;;;;;;15.51;75.69;100901.94;5013687;28;20061;-75
2023/07/04 01:42:18;;;;;;;15.02;2.50;;;;;;;15.52;75.63;100891.31;5011812;28;20045;-75
2023/07/04 01:44:44;;;;;;;12.05;2.70;;;;;;;15.41;76.08;100902.25;5007194;28;20073;-75
2023/07/04 01:47:09;;;;;;;9.15;3.03;;;;;;;15.43;76.03;100908.09;5010517;28;20036;-76
2023/07/04 01:49:35;;;;;;;16.70;2.30;;;;;;;15.42;76.21;100901.22;5009079;28;20400;-76
2023/07/04 01:52:00;;;;;;;13.00;2.30;;;;;;;15.36;76.96;100904.59;5010928;28;20493;-75
2023/07/04 01:54:26;;;;;;;18.98;3.33;;;;;;;15.32;77.10;100906.75;5005055;28;20119;-74
2023/07/04 01:56:52;;;;;;;19.77;2.70;;;;;;;15.33;77.18;100908.41;5010594;28;20165;-76
2023/07/04 01:59:19;;;;;;;15.75;2.67;;;;;;;15.27;77.77;100908.31;5025914;28;20050;-76
2023/07/04 02:01:44;;;;;;;10.40;2.08;;;;;;;15.24;77.93;100912.09;5011343;28;20033;-76
2023/07/04 02:04:11;;;;;;;15.55;2.45;;;;;;;15.22;78.16;100906.25;5004849;28;20042;-76
2023/07/04 02:06:37;;;;;;;11.73;2.55;;;;;;;15.15;78.92;100900.94;4989328;28;20116;-76
2023/07/04 02:09:03;;;;;;;17.52;3.05;;;;;;;15.19;78.72;100914.44;5009906;28;20041;-75
2023/07/04 02:11:28;;;;;;;10.25;2.50;;;;;;;15.19;78.82;100907.41;5012802;28;20520;-76
2023/07/04 02:13:54;;;;;;;12.00;2.20;;;;;;;15.23;78.68;100907.88;5009061;28;20041;-76
2023/07/04 02:16:19;;;;;;;15.73;3.33;;;;;;;15.27;78.60;100905.69;5012438;28;20415;-75
2023/07/04 02:18:44;;;;;;;14.57;2.72;;;;;;;15.22;78.59;100906.25;5021147;28;20050;-75
2023/07/04 02:21:10;;;;;;;8.02;2.83;;;;;;;15.29;78.67;100901.91;4990583;28;20028;-77
2023/07/04 02:23:35;;;;;;;13.85;2.83;;;;;;;15.18;79.20;100899.75;5004975;28;20041;-74
2023/07/04 02:26:01;;;;;;;11.82;2.53;;;;;;;15.15;79.43;100905.38;5007544;28;20030;-76
2023/07/04 02:28:27;;;;;;;18.70;3.55;;;;;;;15.05;80.19;100905.66;4992039;28;20033;-75
2023/07/04 02:30:58;;;;;;;22.63;3.30;;;;;;;15.11;80.34;100904.13;5010017;28;20022;-76
2023/07/04 02:33:25;;;;;;;16.37;3.30;;;;;;;15.09;80.33;100903.50;5004867;28;20033;-75
2023/07/04 02:35:51;;;;;;;15.68;2.67;;;;;;;15.23;80.01;100902.63;4991013;28;20032;-76
2023/07/04 02:38:19;;;;;;;17.38;3.35;;;;;;;15.22;80.13;100905.44;4989965;28;20029;-76
2023/07/04 02:40:46;;;;;;;14.93;2.67;;;;;;;15.08;80.67;100900.06;5008954;28;20108;-75
2023/07/04 02:43:13;;;;;;;15.23;2.63;;;;;;;15.05;81.37;100904.84;5020657;28;20029;-75
2023/07/04 02:45:39;;;;;;;11.30;2.20;;;;;;;15.06;81.58;100906.47;4984519;28;20048;-76
2023/07/04 02:48:07;;;;;;;19.98;2.53;;;;;;;15.16;81.17;100906.97;5024427;28;20088;-75
2023/07/04 02:50:33;;;;;;;15.00;2.50;;;;;;;15.14;81.11;100894.13;5007742;28;20041;-75
2023/07/04 02:52:59;;;;;;;11.85;2.95;;;;;;;15.11;81.40;100891.06;5023814;28;20030;-75
2023/07/04 02:55:27;;;;;;;14.43;2.78;;;;;;;15.02;81.93;100885.13;5004067;28;20058;-77
2023/07/04 02:57:53;;;;;;;17.77;3.05;;;;;;;14.85;83.13;100887.13;5002808;28;20073;-75
2023/07/04 03:00:18;;;;;;;12.73;3.10;;;;;;;14.98;83.00;100889.91;5006709;28;20084;-76
2023/07/04 03:02:46;;;;;;;15.18;2.60;;;;;;;14.94;83.19;100890.47;5006477;28;20072;-76
2023/07/04 03:05:12;;;;;;;14.88;2.95;;;;;;;14.84;84.06;100895.13;5003708;28;20046;-75
2023/07/04 03:07:38;;;;;;;14.40;3.10;;;;;;;14.82;84.34;100897.13;5009302;28;20064;-75
2023/07/04 03:10:06;;;;;;;15.05;3.15;;;;;;;14.89;84.41;100898.03;5006804;28;20091;-76
2023/07/04 03:12:31;;;;;;;13.13;3.08;;;;;;;14.83;84.58;100893.53;5005391;28;20038;-76
2023/07/04 03:14:58;;;;;;;23.25;4.05;;;;;;;14.76;84.92;100891.63;4989903;28;20034;-74
2023/07/04 03:17:24;;;;;;;19.48;3.78;;;;;;;14.77;85.03;100897.69;5001866;28;20504;-77
2023/07/04 03:19:50;;;;;;;17.63;3.70;;;;;;;14.75;85.31;100890.03;5009761;28;20034;-77
2023/07/04 03:22:18;;;;;;;17.63;2.78;;;;;;;14.78;85.49;100894.06;5006300;28;20030;-75
2023/07/04 03:24:44;;;;;;;16.73;3.63;;;;;;;14.72;85.69;100893.00;5002796;28;20046;-76
2023/07/04 03:27:10;;;;;;;19.10;3.88;;;;;;;14.65;85.98;100883.44;5027309;28;20530;-75
2023/07/04 03:29:35;;;;;;;17.20;2.85;;;;;;;14.63;86.43;100890.66;5007662;28;21329;-74
2023/07/04 03:32:01;;;;;;;16.98;3.17;;;;;;;14.65;86.35;100888.69;5026266;28;20033;-74
2023/07/04 03:34:26;;;;;;;23.65;3.28;;;;;;;14.61;87.08;100890.84;5007806;28;20116;-76
2023/07/04 03:36:52;;;;;;;16.88;2.88;;;;;;;14.65;86.93;100899.13;5008256;28;20084;-75
2023/07/04 03:39:17;;;;;;;15.48;3.00;;;;;;;14.63;86.98;100893.25;4984723;28;20247;-76
2023/07/04 03:41:43;;;;;;;19.63;3.47;;;;;;;14.64;86.92;100898.31;5008614;28;20030;-77
2023/07/04 03:44:08;;;;;;;16.15;3.65;;;;;;;14.66;87.23;100895.53;5003033;28;20049;-74
2023/07/04 03:46:34;;;;;;;11.95;3.00;;;;;;;14.62;87.24;100900.28;5005640;28;20065;-75
2023/07/04 03:49:00;;;;;;;18.65;3.05;;;;;;;14.60;87.19;100904.88;4996718;28;20049;-75
2023/07/04 03:51:26;;;;;;;14.30;2.72;;;;;;;14.66;87.06;100909.38;4988265;28;20030;-76
2023/07/04 03:53:51;;;;;;;18.75;2.53;;;;;;;14.63;87.17;100916.75;5000299;28;20065;-76
2023/07/04 03:56:18;;;;;;;17.63;3.65;;;;;;;14.62;87.20;100918.56;4990874;28;20028;-74
2023/07/04 03:58:43;;;;;;;19.42;2.70;;;;;;;14.62;87.55;100918.56;5006981;28;20475;-75
2023/07/04 04:01:09;;;;;;;19.65;3.13;;;;;;;14.62;87.97;100913.34;5008422;28;20026;-76
2023/07/04 04:03:38;;;;;;;18.17;3.13;;;;;;;14.68;87.35;100912.63;5006963;28;20057;-73
2023/07/04 04:06:08;;;;;;;18.35;3.00;;;;;;;14.63;87.65;100916.75;5006827;28;20084;-77
2023/07/04 04:08:34;;;;;;;21.13;3.22;;;;;;;14.69;88.01;100923.84;5003585;28;20045;-75
2023/07/04 04:11:01;;;;;;;14.32;2.75;;;;;;;14.61;87.71;100919.53;5004586;28;20072;-76
2023/07/04 04:13:26;;;;;;;23.80;3.35;;;;;;;14.55;88.20;100928.06;5007755;28;20037;-76
2023/07/04 04:15:53;;;;;;;12.90;3.80;;;;;;;14.57;88.16;100926.91;5006663;28;20038;-76
2023/07/04 04:18:19;;;;;;;15.82;3.45;;;;;;;14.57;88.41;100928.72;5008897;28;20099;-75
2023/07/04 04:20:44;;;;;;;19.27;3.50;;;;;;;14.51;88.66;100926.78;5012467;28;20698;-75
2023/07/04 04:23:10;;;;;;;14.25;2.70;;;;;;;14.54;88.74;100927.25;5010804;28;20657;-76
2023/07/04 04:25:38;;;;;;;19.15;3.47;;;;;;;14.58;88.68;100925.13;4995306;28;20041;-77
2023/07/04 04:28:08;;;;;;;15.40;2.90;;;;;;;14.55;88.91;100935.88;5012704;28;20817;-76
2023/07/04 04:30:34;;;;;;;12.88;2.90;;;;;;;14.60;89.08;100934.38;5010405;28;20046;-75
2023/07/04 04:33:02;;;;;;;20.10;3.00;;;;;;;14.72;88.52;100936.56;4996424;28;20107;-77
2023/07/04 04:35:28;;;;;;;24.95;4.10;;;;;;;14.70;88.85;100939.34;5006763;28;20104;-76
2023/07/04 04:37:54;;;;;;;19.10;3.30;;;;;;;14.76;88.48;100945.63;5007232;28;20061;-75
2023/07/04 04:40:19;;;;;;;20.00;3.22;;;;;;;14.74;89.21;100942.41;5014330;28;20141;-77
2023/07/04 04:42:45;;;;;;;20.13;3.63;;;;;;;14.83;88.49;100943.13;4994100;28;20033;-76
2023/07/04 04:45:11;;;;;;;17.83;2.88;;;;;;;14.85;88.76;100944.56;5009864;28;20033;-78
2023/07/04 04:47:39;;;;;;;11.00;3.10;;;;;;;14.93;88.71;100944.47;5012342;28;20441;-76
2023/07/04 04:50:05;;;;;;;21.85;3.63;;;;;;;14.91;88.65;100950.88;5011360;28;20164;-76
2023/07/04 04:52:32;;;;;;;19.08;2.97;;;;;;;14.85;89.01;100954.19;4993324;28;20030;-75
2023/07/04 04:54:59;;;;;;;16.20;3.97;;;;;;;14.99;88.83;100953.38;5008999;28;20076;-75
2023/07/04 04:57:24;;;;;;;20.45;2.95;;;;;;;15.04;88.99;100945.00;5010210;28;20037;-77
2023/07/04 04:59:50;;;;;;;17.38;3.03;;;;;;;14.99;89.11;100946.38;5001890;28;20468;-73
2023/07/04 05:02:16;;;;;;;24.30;3.13;;;;;;;15.05;88.81;100939.59;5011190;28;20689;-74
2023/07/04 05:04:41;;;;;;;22.08;4.28;;;;;;;15.14;88.30;100937.69;5006050;28;20045;-74
2023/07/04 05:07:07;;;;;;;23.98;3.00;;;;;;;15.10;88.68;100949.50;5011214;28;20042;-75
2023/07/04 05:09:33;;;;;;;14.82;3.80;;;;;;;15.13;88.08;100944.72;5016686;28;20080;-79
2023/07/04 05:12:00;;;;;;;17.10;3.33;;;;;;;15.10;88.27;100950.28;5009228;28;20520;-76
2023/07/04 05:14:26;;;;;;;13.80;2.83;;;;;;;15.19;88.38;100953.63;5008045;28;20042;-76
2023/07/04 05:16:52;;;;;;;13.60;2.65;;;;;;;15.26;88.29;100966.78;5010209;28;20524;-76
2023/07/04 05:19:17;;;;;;;15.00;3.22;;;;;;;15.21;88.05;100961.28;5009899;28;20061;-75
2023/07/04 05:21:43;;;;;;;23.85;3.45;;;;;;;15.30;87.63;100955.78;5011841;28;20025;-77
2023/07/04 05:24:08;;;;;;;18.58;3.22;;;;;;;15.33;87.73;100957.19;5006068;28;20100;-77
2023/07/04 05:26:33;;;;;;;21.63;4.15;;;;;;;15.42;87.67;100960.53;4991736;28;20031;-76
2023/07/04 05:28:59;;;;;;;19.77;3.45;;;;;;;15.43;87.42;100956.94;4987413;28;20648;-75
2023/07/04 05:31:27;;;;;;;20.33;3.05;;;;;;;15.51;87.43;100965.44;5014544;28;20586;-77
2023/07/04 05:33:54;;;;;;;14.05;3.67;;;;;;;15.61;87.05;100965.16;5008517;28;20049;-76
2023/07/04 05:36:22;;;;;;;21.58;3.72;;;;;;;15.63;86.92;100965.78;5009667;28;20469;-77
2023/07/04 05:38:53;;;;;;;23.70;3.53;;;;;;;15.57;87.33;100961.28;5007272;28;20073;-77
2023/07/04 05:41:21;;;;;;;14.85;2.70;;;;;;;15.61;87.36;100966.97;5008790;28;20034;-77
2023/07/04 05:43:47;;;;;;;12.55;2.88;;;;;;;15.69;86.97;100969.44;5004345;28;20445;-76
2023/07/04 05:46:14;;;;;;;23.60;4.22;;;;;;;15.62;86.64;100969.41;5010973;28;20065;-76
2023/07/04 05:48:41;;;;;;;21.42;3.13;;;;;;;15.61;86.83;100961.72;5008240;28;20084;-77
2023/07/04 05:51:10;;;;;;;23.20;4.05;;;;;;;15.75;86.12;100963.53;5010819;28;20030;-75
2023/07/04 05:53:38;;;;;;;19.70;3.63;;;;;;;15.93;86.08;100968.31;5012054;28;20041;-78
2023/07/04 05:56:15;;;;;;;20.17;3.55;;;;;;;15.93;85.20;100976.97;5012067;28;20113;-77
2023/07/04 05:58:42;;;;;;;22.17;3.50;;;;;;;15.96;85.15;100970.56;5003585;28;20774;-76
2023/07/04 06:01:09;;;;;;;15.07;3.45;;;;;;;16.09;84.35;100972.50;5007685;28;20125;-74
2023/07/04 06:03:35;;;;;;;15.73;2.83;;;;;;;16.34;83.48;100980.75;5009056;28;20069;-75
2023/07/04 06:06:05;;;;;;;25.15;3.42;;;;;;;16.35;83.28;100977.94;5012154;28;20488;-76
2023/07/04 06:08:31;;;;;;;23.30;4.45;;;;;;;16.31;83.68;100978.50;5004663;28;21329;-77
2023/07/04 06:10:58;;;;;;;21.67;3.40;;;;;;;16.52;82.34;100978.47;5009112;28;20038;-77
2023/07/04 06:13:24;;;;;;;24.30;3.60;;;;;;;16.84;80.40;100978.91;5009193;28;20046;-77
2023/07/04 06:15:49;;;;;;;22.83;4.07;;;;;;;16.93;80.34;100971.69;5011590;28;20030;-76
2023/07/04 06:18:15;;;;;;;23.42;5.45;;;;;;;17.08;79.73;100985.47;5008890;28;20030;-75
2023/07/04 06:20:40;;;;;;;23.38;4.38;;;;;;;17.23;78.74;100974.84;5011979;28;20038;-77
2023/07/04 06:23:06;;;;;;;13.93;3.63;;;;;;;17.58;77.05;100985.25;5008718;28;20045;-76
2023/07/04 06:25:33;;;;;;;19.08;3.28;;;;;;;17.59;76.43;100999.97;5009524;28;20060;-76
2023/07/04 06:27:59;;;;;;;20.55;4.20;;;;;;;17.27;77.15;101001.47;4994705;28;20184;-78
2023/07/04 06:30:29;;;;;;;16.23;3.83;;;;;;;17.05;77.91;100998.97;5009720;28;20133;-79
2023/07/04 06:32:55;;;;;;;12.18;3.03;;;;;;;17.18;76.80;101003.47;5001053;28;20030;-77
2023/07/04 06:35:21;;;;;;;14.70;3.63;;;;;;;17.54;74.25;101005.00;4991429;28;20034;-74
2023/07/04 06:37:46;;;;;;;17.35;3.30;;;;;;;18.01;72.45;101003.31;4990372;28;20092;-77
2023/07/04 06:40:12;;;;;;;21.55;4.10;;;;;;;18.21;70.51;100998.06;5013953;28;20065;-77
2023/07/04 06:42:37;;;;;;;21.30;4.35;;;;;;;18.12;71.59;100996.69;4992060;28;20515;-75
2023/07/04 06:45:03;;;;;;;19.83;4.53;;;;;;;18.08;71.50;101001.53;5011245;28;20439;-78
2023/07/04 06:47:29;;;;;;;23.17;3.63;;;;;;;17.92;71.96;101003.72;5007532;28;20044;-77
2023/07/04 06:49:55;;;;;;;13.77;3.40;;;;;;;17.79;70.94;101000.03;5009691;28;20092;-75
2023/07/04 06:52:20;;;;;;;16.33;3.03;;;;;;;18.20;68.42;100993.06;4992211;28;20563;-75
2023/07/04 06:54:48;;;;;;;15.40;3.20;;;;;;;18.71;65.65;101004.72;5006696;28;20045;-76
2023/07/04 06:57:14;;;;;;;16.13;2.78;;;;;;;19.09;64.86;100993.53;5006096;28;20033;-77
2023/07/04 06:59:39;;;;;;;20.00;3.78;;;;;;;19.19;65.42;101005.25;5003819;28;20071;-77
2023/07/04 07:02:05;;;;;;;14.65;3.25;;;;;;;19.19;66.11;100997.34;5009176;28;20476;-76
2023/07/04 07:04:31;;;;;;;14.73;3.53;;;;;;;18.68;65.51;101004.13;5007327;28;20414;-72
2023/07/04 07:06:56;;;;;;;19.67;2.47;;;;;;;18.68;66.03;101009.38;4993682;28;20045;-75
2023/07/04 07:09:22;;;;;;;17.17;4.13;;;;;;;19.41;64.18;101008.38;5008631;28;20037;-75
2023/07/04 07:11:47;;;;;;;12.25;2.70;;;;;;;19.33;63.83;101007.81;4991113;28;20366;-77
2023/07/04 07:14:13;;;;;;;14.68;2.78;;;;;;;19.18;64.32;101013.34;4993639;28;20440;-78
2023/07/04 07:16:38;;;;;;;14.52;2.75;;;;;;;18.91;65.47;101009.97;5007930;28;20052;-76
2023/07/04 07:19:04;;;;;;;16.60;2.50;;;;;;;19.23;65.45;101016.94;5010353;28;20042;-76
2023/07/04 07:21:29;;;;;;;16.17;3.38;;;;;;;19.59;63.26;101020.00;5009259;28;20062;-75
2023/07/04 07:23:55;;;;;;;16.58;3.72;;;;;;;19.61;62.42;101021.44;5007150;28;20037;-77
2023/07/04 07:26:22;;;;;;;16.67;2.70;;;;;;;19.82;63.11;101030.06;5008197;28;20465;-73
2023/07/04 07:28:48;;;;;;;13.90;2.92;;;;;;;19.99;62.04;101032.97;5009401;28;20389;-74
2023/07/04 07:31:21;;;;;;;15.13;3.00;;;;;;;19.85;61.67;101034.88;5009823;28;20034;-74
2023/07/04 07:33:48;;;;;;;18.05;3.28;;;;;;;19.92;61.46;101027.75;4998135;28;20041;-79
2023/07/04 07:36:23;;;;;;;14.77;2.60;;;;;;;20.28;61.30;101036.00;4995325;28;20111;-77
2023/07/04 07:38:49;;;;;;;17.85;3.30;;;;;;;20.34;60.11;101029.88;5021090;28;20060;-74
2023/07/04 07:41:16;;;;;;;14.00;2.20;;;;;;;20.61;59.59;101033.13;5013223;28;20099;-75
2023/07/04 07:43:42;;;;;;;12.45;2.95;;;;;;;20.19;60.42;101027.56;5014600;28;20136;-76
2023/07/04 07:46:16;;;;;;;7.47;2.30;;;;;;;20.72;59.25;101024.50;5010661;28;20113;-77
2023/07/04 07:48:42;;;;;;;13.25;3.28;;;;;;;20.50;58.08;101020.63;5003404;28;20095;-77
2023/07/04 07:51:11;;;;;;;14.60;2.58;;;;;;;21.13;57.35;101015.13;4990352;28;20026;-76
2023/07/04 07:53:39;;;;;;;15.88;2.70;;;;;;;20.58;57.16;101033.53;5007397;28;20484;-75
2023/07/04 07:56:05;;;;;;;10.52;2.10;;;;;;;21.14;52.48;101029.13;5003522;28;20096;-79
2023/07/04 07:58:32;;;;;;;12.52;1.90;;;;;;;21.64;51.96;101038.69;5001209;28;20097;-77
2023/07/04 08:00:58;;;;;;;16.13;2.88;;;;;;;21.81;51.72;101034.38;5011654;28;20476;-75
2023/07/04 08:03:24;;;;;;;8.35;1.85;;;;;;;22.09;49.79;101031.13;5004382;28;20124;-75
2023/07/04 08:05:49;;;;;;;13.75;2.83;;;;;;;22.07;49.65;101013.91;5007223;28;20482;-75
2023/07/04 08:08:15;;;;;;;9.55;2.08;;;;;;;21.76;50.73;101010.53;5008200;28;20041;-76
2023/07/04 08:10:42;;;;;;;11.57;2.15;;;;;;;21.53;50.44;101016.50;5007254;28;20468;-75
2023/07/04 08:13:08;;;;;;;10.10;1.95;;;;;;;21.33;51.59;101014.91;5003266;28;20109;-77
2023/07/04 08:15:34;;;;;;;11.77;1.98;;;;;;;20.95;51.33;101015.97;5006986;28;20531;-76
2023/07/04 08:18:05;;;;;;;7.95;2.17;;;;;;;21.25;51.58;101009.94;5004396;28;20026;-76
2023/07/04 08:20:31;;;;;;;8.13;1.85;;;;;;;21.42;50.16;101023.31;5004214;28;20057;-76
2023/07/04 08:22:56;;;;;;;13.45;2.38;;;;;;;21.21;50.68;101019.31;5002591;28;20030;-76
2023/07/04 08:25:22;;;;;;;13.32;2.20;;;;;;;21.33;51.10;101033.38;5006756;28;20416;-79
2023/07/04 08:27:48;;;;;;;10.15;2.38;;;;;;;21.37;51.01;101013.44;5006966;28;20033;-79
2023/07/04 08:30:14;;;;;;;8.70;2.42;;;;;;;21.61;49.97;101013.56;5006158;28;20053;-78
2023/07/04 08:32:39;;;;;;;11.35;2.17;;;;;;;22.09;47.78;101012.63;5005297;28;20033;-77
2023/07/04 08:35:05;;;;;;;13.43;2.35;;;;;;;22.48;47.28;101006.97;5006655;28;20559;-75
2023/07/04 08:37:30;;;;;;;12.35;2.95;;;;;;;22.89;46.01;101008.66;5008525;28;20025;-77
2023/07/04 08:39:56;;;;;;;11.90;2.28;;;;;;;23.52;46.30;101003.53;4986940;28;20046;-76
2023/07/04 08:42:25;;;;;;;7.80;2.25;;;;;;;23.54;45.98;101009.38;4992162;28;20049;-79
2023/07/04 08:44:52;;;;;;;10.73;2.45;;;;;;;23.29;45.52;101017.66;5004811;28;20467;-75
2023/07/04 08:47:25;;;;;;;7.20;2.03;;;;;;;23.60;43.43;101012.94;5010478;28;20093;-76
2023/07/04 08:50:05;;;;;;;7.85;1.77;;;;;;;23.52;44.04;101017.56;5007328;28;20034;-76
2023/07/04 08:53:09;;;;;;;11.05;2.50;;;;;;;23.65;43.79;101008.53;5003697;28;20489;-77
2023/07/04 08:55:55;;;;;;;8.07;2.17;;;;;;;23.65;43.84;101013.81;5008312;28;20049;-77
2023/07/04 08:58:31;;;;;;;13.65;2.13;;;;;;;24.12;44.13;101022.56;5011731;28;20064;-77
2023/07/04 09:01:02;;;;;;;11.13;2.70;;;;;;;24.29;43.28;101034.75;5011857;28;20030;-77
2023/07/04 09:03:46;;;;;;;7.35;2.03;;;;;;;24.32;42.79;101048.56;5007035;28;20026;-75
2023/07/04 09:06:40;;;;;;;13.88;2.70;;;;;;;24.04;44.40;101051.06;5011955;28;20022;-78
2023/07/04 09:09:28;;;;;;;7.13;1.88;;;;;;;23.64;44.69;101043.16;4995728;28;20443;-76
2023/07/04 09:11:54;;;;;;;8.77;1.70;;;;;;;23.62;43.48;101045.25;4994435;28;20088;-77
2023/07/04 09:15:02;;;;;;;7.53;2.08;;;;;;;23.18;42.65;101052.88;5005583;28;20042;-76
2023/07/04 09:17:42;;;;;;;7.80;1.90;;;;;;;22.60;44.68;101067.72;5007623;28;20056;-76
2023/07/04 09:20:09;;;;;;;7.07;2.10;;;;;;;22.69;43.50;101043.38;5010351;28;20042;-78
2023/07/04 09:22:35;;;;;;;9.77;1.60;;;;;;;22.96;44.09;101044.72;5012062;28;20225;-78
2023/07/04 09:25:03;;;;;;;6.28;1.60;;;;;;;22.94;43.39;101047.59;5009124;28;20060;-77
2023/07/04 09:27:29;;;;;;;10.52;2.47;;;;;;;23.24;42.53;101044.81;5007603;28;20030;-77
2023/07/04 09:29:57;;;;;;;11.88;2.28;;;;;;;23.42;41.34;101038.53;5009187;28;20046;-76
2023/07/04 09:32:23;;;;;;;9.70;1.90;;;;;;;23.49;42.82;101041.06;5012966;28;20037;-77
2023/07/04 09:34:59;;;;;;;12.13;2.28;;;;;;;23.60;41.59;101049.97;5012611;28;20072;-77
2023/07/04 09:37:25;;;;;;;10.85;2.25;;;;;;;23.82;42.81;101036.91;5013867;28;20083;-75
2023/07/04 09:39:54;;;;;;;8.20;2.20;;;;;;;24.19;41.45;101037.25;5013629;28;20054;-77
2023/07/04 09:42:22;;;;;;;8.80;1.90;;;;;;;24.60;41.62;101029.13;4992501;28;20473;-80
2023/07/04 09:44:51;;;;;;;4.72;1.75;;;;;;;24.79;39.36;101029.63;5021954;28;20045;-76
2023/07/04 09:47:26;;;;;;;6.85;1.80;;;;;;;24.58;40.47;101040.00;5007544;28;20026;-74
2023/07/04 09:50:24;;;;;;;6.63;1.55;;;;;;;24.71;39.88;101032.72;5008623;28;20084;-76
2023/07/04 09:53:10;;;;;;;6.47;1.80;;;;;;;24.97;39.70;101036.50;5028505;28;20030;-76
2023/07/04 09:55:40;;;;;;;9.75;1.60;;;;;;;25.08;38.98;101038.25;5009835;28;20116;-75
2023/07/04 09:58:15;;;;;;;11.70;1.85;;;;;;;24.99;39.26;101045.03;5002074;28;20065;-76
2023/07/04 10:00:44;;;;;;;11.18;2.10;;;;;;;24.81;39.08;101044.28;5026651;28;20079;-77
2023/07/04 10:03:10;;;;;;;8.10;2.08;;;;;;;24.91;39.55;101061.38;5005081;28;20036;-79
2023/07/04 10:05:37;;;;;;;8.48;1.67;;;;;;;24.77;39.13;101045.00;5008791;28;20053;-76
2023/07/04 10:08:11;;;;;;;5.72;1.90;;;;;;;24.91;38.91;101048.09;5008833;28;20060;-76
2023/07/04 10:10:40;;;;;;;7.28;1.73;;;;;;;24.88;38.21;101049.38;5007068;28;20120;-75
2023/07/04 10:13:07;;;;;;;4.90;1.50;;;;;;;25.11;39.20;101045.72;5010633;28;20048;-75
2023/07/04 10:15:38;;;;;;;8.35;2.03;;;;;;;24.66;38.57;101047.53;5005143;28;20046;-76
2023/07/04 10:18:04;;;;;;;13.48;2.40;;;;;;;24.19;39.33;101052.34;5014843;28;20034;-77
2023/07/04 10:20:39;;;;;;;5.97;1.80;;;;;;;24.42;39.84;101052.19;5010197;28;20460;-78
2023/07/04 10:23:05;;;;;;;6.45;2.10;;;;;;;24.82;37.88;101040.56;5011790;28;20473;-76
2023/07/04 10:25:31;;;;;;;7.25;1.92;;;;;;;25.22;38.64;101049.25;5009464;28;20049;-79
2023/07/04 10:28:06;;;;;;;8.70;1.88;;;;;;;25.00;36.56;101043.97;5008538;28;20038;-75
2023/07/04 10:30:35;;;;;;;9.68;1.77;;;;;;;25.13;36.89;101051.56;5007198;28;20129;-73
2023/07/04 10:33:03;;;;;;;11.02;1.92;;;;;;;25.30;38.99;101042.75;5013405;28;20042;-75
2023/07/04 10:35:36;;;;;;;5.13;1.92;;;;;;;25.10;37.51;101041.44;5006175;28;20045;-75
2023/07/04 10:38:07;;;;;;;10.45;2.42;;;;;;;24.67;39.15;101051.75;5007845;28;20065;-75
2023/07/04 10:40:35;;;;;;;6.30;2.47;;;;;;;24.71;39.68;101052.06;5008170;28;20088;-76
2023/07/04 10:43:07;;;;;;;7.13;1.98;;;;;;;24.91;39.81;101040.94;5004896;28;20049;-75
2023/07/04 10:45:35;;;;;;;6.35;2.08;;;;;;;24.79;40.33;101040.25;4992902;28;20129;-75
2023/07/04 10:48:10;;;;;;;11.15;2.10;;;;;;;24.32;40.27;101041.44;5005029;28;20040;-76
2023/07/04 10:50:44;;;;;;;13.77;2.58;;;;;;;24.61;40.42;101036.03;5005116;28;21995;-76
2023/07/04 10:53:10;;;;;;;9.88;3.08;;;;;;;24.41;41.80;101040.00;5009595;28;20712;-78
2023/07/04 10:55:44;;;;;;;7.82;2.08;;;;;;;24.19;40.57;101039.91;4993881;28;20199;-76
2023/07/04 10:58:18;;;;;;;8.88;2.53;;;;;;;24.17;40.97;101034.03;5006120;28;20451;-78
2023/07/04 11:00:54;;;;;;;4.60;2.20;;;;;;;24.22;39.99;101042.09;5005406;28;20046;-73
2023/07/04 11:03:29;;;;;;;9.85;2.80;;;;;;;24.20;40.97;101041.50;5007735;28;20061;-78
2023/07/04 11:05:57;;;;;;;12.40;2.35;;;;;;;23.85;40.79;101047.03;5007075;28;20026;-75
2023/07/04 11:08:27;;;;;;;11.48;2.67;;;;;;;23.93;40.60;101046.63;5012245;28;20038;-73
2023/07/04 11:11:25;;;;;;;10.07;2.90;;;;;;;24.12;41.99;101047.19;5009777;28;20037;-72
2023/07/04 11:13:54;;;;;;;10.38;2.83;;;;;;;24.31;42.00;101050.41;5005162;28;20041;-72
2023/07/04 11:16:27;;;;;;;6.78;2.85;;;;;;;24.29;41.09;101047.19;5009482;28;20038;-76
2023/07/04 11:19:07;;;;;;;6.57;2.50;;;;;;;24.18;41.23;101038.28;5009981;28;20060;-75
2023/07/04 11:21:33;;;;;;;14.20;2.53;;;;;;;24.21;41.28;101031.72;5004757;28;20040;-77
2023/07/04 11:24:18;;;;;;;10.02;2.28;;;;;;;24.52;41.15;101033.00;5003467;28;20520;-74